createdAt,value
2017-08-17T00:01:05.522Z,68.06
2017-08-17T00:03:33.064Z,68.05
2017-08-17T00:06:00.237Z,68.01
2017-08-17T00:08:27.675Z,67.99
2017-08-17T00:10:54.859Z,67.96
2017-08-17T00:13:22.043Z,67.92
2017-08-17T00:15:49.245Z,67.90
2017-08-17T00:18:16.426Z,67.90
2017-08-17T00:20:43.596Z,67.89
2017-08-17T00:23:10.769Z,67.91
2017-08-17T00:25:38.273Z,67.90
2017-08-17T00:28:05.742Z,67.90
2017-08-17T00:30:32.918Z,67.91
2017-08-17T00:33:00.104Z,67.92
2017-08-17T00:35:27.679Z,67.93
2017-08-17T00:37:54.864Z,67.93
2017-08-17T00:40:22.255Z,67.93
2017-08-17T00:42:50.205Z,68.10
2017-08-17T00:45:17.377Z,67.67
2017-08-17T00:47:44.560Z,66.56
2017-08-17T00:50:12.001Z,65.78
2017-08-17T00:52:39.570Z,65.21
2017-08-17T00:55:07.338Z,64.59
2017-08-17T00:57:34.777Z,64.41
2017-08-17T01:00:02.249Z,65.19
2017-08-17T01:02:30.188Z,65.56
2017-08-17T01:04:57.408Z,65.69
2017-08-17T01:07:24.612Z,65.97
2017-08-17T01:09:52.073Z,66.11
2017-08-17T01:12:19.245Z,66.29
2017-08-17T01:14:46.680Z,66.42
2017-08-17T01:17:14.194Z,66.55
2017-08-17T01:19:41.369Z,66.62
2017-08-17T01:22:08.539Z,66.70
2017-08-17T01:24:35.723Z,66.76
2017-08-17T01:27:03.045Z,66.83
2017-08-17T01:29:30.217Z,66.90
2017-08-17T01:31:57.599Z,66.95
2017-08-17T01:34:24.801Z,67.00
2017-08-17T01:36:51.996Z,67.06
2017-08-17T01:39:19.410Z,67.11
2017-08-17T01:41:46.864Z,67.16
2017-08-17T01:44:14.325Z,67.18
2017-08-17T01:46:41.772Z,67.22
2017-08-17T01:49:08.959Z,67.24
2017-08-17T01:51:36.590Z,67.26
2017-08-17T01:54:03.766Z,67.30
2017-08-17T01:56:31.182Z,67.32
2017-08-17T01:58:58.452Z,67.36
2017-08-17T02:01:26.112Z,67.38
2017-08-17T02:03:53.280Z,67.40
2017-08-17T02:06:20.517Z,67.40
2017-08-17T02:08:47.704Z,67.44
2017-08-17T02:11:15.119Z,67.48
2017-08-17T02:13:42.586Z,67.51
2017-08-17T02:16:10.036Z,67.52
2017-08-17T02:18:37.496Z,67.57
2017-08-17T02:21:04.680Z,67.62
2017-08-17T02:23:32.101Z,67.61
2017-08-17T02:25:59.292Z,67.61
2017-08-17T02:28:26.475Z,67.61
2017-08-17T02:30:53.663Z,67.65
2017-08-17T02:33:21.013Z,67.66
2017-08-17T02:35:48.465Z,67.67
2017-08-17T02:38:15.925Z,67.72
2017-08-17T02:40:43.112Z,67.75
2017-08-17T02:43:10.295Z,67.76
2017-08-17T02:45:37.684Z,67.77
2017-08-17T02:48:04.867Z,67.77
2017-08-17T02:50:32.040Z,67.78
2017-08-17T02:52:59.223Z,67.79
2017-08-17T02:55:26.411Z,67.80
2017-08-17T02:57:53.581Z,67.79
2017-08-17T03:00:20.894Z,67.79
2017-08-17T03:02:48.426Z,67.81
2017-08-17T03:05:15.612Z,67.83
2017-08-17T03:07:42.959Z,67.83
2017-08-17T03:10:10.147Z,67.85
2017-08-17T03:12:37.335Z,67.89
2017-08-17T03:15:04.519Z,67.89
2017-08-17T03:17:31.856Z,67.90
2017-08-17T03:19:59.098Z,67.91
2017-08-17T03:22:26.463Z,67.92
2017-08-17T03:24:54.111Z,67.93
2017-08-17T03:27:21.696Z,67.93
2017-08-17T03:29:48.865Z,67.94
2017-08-17T03:32:16.047Z,67.96
2017-08-17T03:34:43.632Z,67.94
2017-08-17T03:37:11.217Z,67.93
2017-08-17T03:39:38.866Z,67.91
2017-08-17T03:42:06.126Z,67.89
2017-08-17T03:44:33.294Z,67.87
2017-08-17T03:47:00.481Z,67.86
2017-08-17T03:49:27.653Z,67.86
2017-08-17T03:51:54.831Z,67.85
2017-08-17T03:54:22.016Z,67.86
2017-08-17T03:56:49.342Z,67.87
2017-08-17T03:59:16.513Z,67.87
2017-08-17T04:01:43.934Z,67.89
2017-08-17T04:04:11.593Z,67.88
2017-08-17T04:06:39.168Z,67.96
2017-08-17T04:09:06.615Z,67.55
2017-08-17T04:11:33.804Z,66.37
2017-08-17T04:14:00.988Z,65.44
2017-08-17T04:16:28.377Z,64.87
2017-08-17T04:18:55.568Z,64.44
2017-08-17T04:21:22.792Z,64.82
2017-08-17T04:23:49.976Z,65.43
2017-08-17T04:26:17.154Z,65.61
2017-08-17T04:28:44.434Z,65.89
2017-08-17T04:31:12.203Z,66.04
2017-08-17T04:33:39.387Z,66.16
2017-08-17T04:36:06.810Z,66.85
2017-08-17T04:38:34.440Z,67.23
2017-08-17T04:41:01.723Z,67.68
2017-08-17T04:43:29.491Z,67.58
2017-08-17T04:45:56.675Z,67.67
2017-08-17T04:48:23.841Z,67.76
2017-08-17T04:50:51.023Z,67.74
2017-08-17T04:53:18.211Z,67.77
2017-08-17T04:55:45.738Z,67.79
2017-08-17T04:58:18.340Z,68.09
2017-08-17T05:00:45.598Z,68.04
2017-08-17T05:03:12.784Z,68.11
2017-08-17T05:05:40.414Z,68.08
2017-08-17T05:08:07.677Z,68.00
2017-08-17T05:10:34.858Z,67.95
2017-08-17T05:13:02.959Z,67.95
2017-08-17T05:15:30.129Z,67.95
2017-08-17T05:17:57.375Z,67.94
2017-08-17T05:20:24.726Z,67.89
2017-08-17T05:22:51.911Z,67.90
2017-08-17T05:25:19.324Z,67.92
2017-08-17T05:27:46.512Z,67.95
2017-08-17T05:30:14.250Z,67.91
2017-08-17T05:32:41.439Z,67.89
2017-08-17T05:35:08.617Z,67.89
2017-08-17T05:37:35.793Z,67.91
2017-08-17T05:40:02.975Z,67.92
2017-08-17T05:42:30.300Z,67.92
2017-08-17T05:44:58.681Z,67.92
2017-08-17T05:47:25.877Z,67.93
2017-08-17T05:49:53.599Z,67.95
2017-08-17T05:52:20.791Z,67.97
2017-08-17T05:54:48.206Z,67.96
2017-08-17T05:57:15.656Z,67.98
2017-08-17T05:59:43.296Z,67.98
2017-08-17T06:02:10.479Z,67.98
2017-08-17T06:04:38.006Z,68.01
2017-08-17T06:07:06.106Z,68.04
2017-08-17T06:09:33.277Z,68.04
2017-08-17T06:12:00.785Z,68.03
2017-08-17T06:14:28.175Z,68.04
2017-08-17T06:16:55.620Z,68.02
2017-08-17T06:19:23.137Z,68.01
2017-08-17T06:21:50.538Z,68.00
2017-08-17T06:24:18.173Z,67.99
2017-08-17T06:26:45.765Z,67.98
2017-08-17T06:29:12.936Z,67.99
2017-08-17T06:31:40.119Z,68.00
2017-08-17T06:34:07.514Z,67.99
2017-08-17T06:36:34.974Z,67.99
2017-08-17T06:39:02.529Z,67.98
2017-08-17T06:41:30.097Z,67.97
2017-08-17T06:43:57.288Z,67.96
2017-08-17T06:46:24.556Z,67.96
2017-08-17T06:48:52.573Z,67.97
2017-08-17T06:51:19.755Z,67.96
2017-08-17T06:53:46.926Z,67.98
2017-08-17T06:56:14.637Z,67.99
2017-08-17T06:58:41.806Z,67.98
2017-08-17T07:01:09.362Z,67.99
2017-08-17T07:03:36.906Z,68.00
2017-08-17T07:06:04.324Z,68.00
2017-08-17T07:08:31.789Z,68.00
2017-08-17T07:10:58.973Z,68.00
2017-08-17T07:13:26.375Z,68.00
2017-08-17T07:15:53.565Z,68.00
2017-08-17T07:18:20.748Z,68.00
2017-08-17T07:20:48.003Z,68.00
2017-08-17T07:23:15.496Z,68.16
2017-08-17T07:25:42.894Z,67.71
2017-08-17T07:28:10.346Z,66.74
2017-08-17T07:30:37.996Z,65.66
2017-08-17T07:33:05.188Z,64.93
2017-08-17T07:35:32.416Z,64.73
2017-08-17T07:37:59.865Z,64.25
2017-08-17T07:40:27.037Z,64.95
2017-08-17T07:42:54.577Z,65.35
2017-08-17T07:45:21.763Z,65.51
2017-08-17T07:47:49.019Z,65.83
2017-08-17T07:50:16.229Z,66.04
2017-08-17T07:52:43.402Z,66.19
2017-08-17T07:55:11.052Z,66.34
2017-08-17T07:57:38.291Z,66.43
2017-08-17T08:00:05.488Z,66.53
2017-08-17T08:02:33.103Z,66.58
2017-08-17T08:05:00.288Z,66.66
2017-08-17T08:07:27.563Z,66.72
2017-08-17T08:09:55.181Z,66.78
2017-08-17T08:12:22.363Z,66.83
2017-08-17T08:14:49.767Z,66.90
2017-08-17T08:17:17.032Z,66.95
2017-08-17T08:19:44.220Z,66.99
2017-08-17T08:22:11.637Z,67.03
2017-08-17T08:24:38.828Z,67.07
2017-08-17T08:27:05.997Z,67.10
2017-08-17T08:29:33.169Z,67.13
2017-08-17T08:32:00.339Z,67.16
2017-08-17T08:34:28.617Z,67.19
2017-08-17T08:36:55.800Z,67.21
2017-08-17T08:39:23.213Z,67.24
2017-08-17T08:41:50.558Z,67.25
2017-08-17T08:44:17.733Z,67.28
2017-08-17T08:46:44.980Z,67.29
2017-08-17T08:49:12.158Z,67.33
2017-08-17T08:51:39.340Z,67.33
2017-08-17T08:54:06.923Z,67.36
2017-08-17T08:56:34.098Z,67.38
2017-08-17T08:59:01.288Z,67.40
2017-08-17T09:01:28.550Z,67.40
2017-08-17T09:03:56.093Z,67.42
2017-08-17T09:06:23.284Z,67.45
2017-08-17T09:08:50.874Z,67.47
2017-08-17T09:11:18.045Z,67.49
2017-08-17T09:13:45.540Z,67.51
2017-08-17T09:16:12.728Z,67.52
2017-08-17T09:18:39.906Z,67.54
2017-08-17T09:21:07.073Z,67.57
2017-08-17T09:23:34.560Z,67.58
2017-08-17T09:26:01.751Z,67.60
2017-08-17T09:28:28.989Z,67.61
2017-08-17T09:30:56.193Z,67.61
2017-08-17T09:33:23.362Z,67.62
2017-08-17T09:35:50.823Z,67.64
2017-08-17T09:38:18.010Z,67.64
2017-08-17T09:40:45.199Z,67.66
2017-08-17T09:43:12.699Z,67.67
2017-08-17T09:45:39.955Z,67.69
2017-08-17T09:48:07.144Z,67.70
2017-08-17T09:50:34.882Z,67.69
2017-08-17T09:53:02.339Z,67.68
2017-08-17T09:55:29.534Z,67.68
2017-08-17T09:57:56.940Z,67.67
2017-08-17T10:00:24.575Z,67.66
2017-08-17T10:02:52.165Z,67.66
2017-08-17T10:05:19.351Z,67.65
2017-08-17T10:07:46.521Z,67.66
2017-08-17T10:10:14.124Z,67.66
2017-08-17T10:12:41.294Z,67.67
2017-08-17T10:15:08.757Z,67.67
2017-08-17T10:17:36.935Z,67.68
2017-08-17T10:20:04.106Z,67.68
2017-08-17T10:22:31.292Z,67.69
2017-08-17T10:24:58.659Z,67.69
2017-08-17T10:27:25.856Z,67.69
2017-08-17T10:29:53.583Z,67.69
2017-08-17T10:32:20.778Z,67.69
2017-08-17T10:34:48.299Z,67.70
2017-08-17T10:37:15.479Z,67.70
2017-08-17T10:39:43.102Z,67.71
2017-08-17T10:42:10.624Z,67.72
2017-08-17T10:44:38.116Z,67.93
2017-08-17T10:47:05.302Z,67.63
2017-08-17T10:49:32.495Z,66.72
2017-08-17T10:51:59.969Z,65.70
2017-08-17T10:54:27.140Z,65.09
2017-08-17T10:56:54.559Z,64.73
2017-08-17T10:59:21.747Z,64.53
2017-08-17T11:01:49.299Z,65.42
2017-08-17T11:04:16.479Z,65.47
2017-08-17T11:06:44.001Z,65.74
2017-08-17T11:09:11.543Z,66.01
2017-08-17T11:11:39.127Z,66.18
2017-08-17T11:14:06.577Z,66.30
2017-08-17T11:16:34.221Z,66.36
2017-08-17T11:19:01.806Z,66.44
2017-08-17T11:21:29.001Z,66.53
2017-08-17T11:23:56.189Z,66.58
2017-08-17T11:26:23.374Z,66.65
2017-08-17T11:28:50.559Z,66.72
2017-08-17T11:31:17.927Z,66.78
2017-08-17T11:33:45.115Z,66.82
2017-08-17T11:36:12.298Z,66.87
2017-08-17T11:38:39.614Z,66.92
2017-08-17T11:41:07.272Z,66.97
2017-08-17T11:43:34.470Z,67.00
2017-08-17T11:46:01.805Z,67.04
2017-08-17T11:48:28.996Z,67.09
2017-08-17T11:50:55.611Z,67.11
2017-08-17T11:53:22.827Z,67.13
2017-08-17T11:55:50.276Z,67.15
2017-08-17T11:58:17.460Z,67.18
2017-08-17T12:00:44.936Z,67.20
2017-08-17T12:03:12.110Z,67.22
2017-08-17T12:05:39.806Z,67.23
2017-08-17T12:08:07.065Z,67.25
2017-08-17T12:10:34.404Z,67.28
2017-08-17T12:13:01.587Z,67.30
2017-08-17T12:15:29.012Z,67.31
2017-08-17T12:17:56.181Z,67.33
2017-08-17T12:20:23.621Z,67.35
2017-08-17T12:22:51.084Z,67.39
2017-08-17T12:25:18.258Z,67.41
2017-08-17T12:27:45.807Z,67.44
2017-08-17T12:30:13.324Z,67.46
2017-08-17T12:32:40.495Z,67.47
2017-08-17T12:35:07.748Z,67.49
2017-08-17T12:37:35.205Z,67.52
2017-08-17T12:40:02.408Z,67.56
2017-08-17T12:42:29.988Z,67.57
2017-08-17T12:44:57.269Z,67.57
2017-08-17T12:47:24.922Z,67.58
2017-08-17T12:49:52.110Z,67.58
2017-08-17T12:52:19.530Z,67.57
2017-08-17T12:54:47.104Z,67.58
2017-08-17T12:57:14.277Z,67.59
2017-08-17T12:59:41.449Z,67.59
2017-08-17T13:02:08.855Z,67.59
2017-08-17T13:04:36.373Z,67.61
2017-08-17T13:07:03.779Z,67.63
2017-08-17T13:09:30.953Z,67.64
2017-08-17T13:11:58.136Z,67.64
2017-08-17T13:14:25.529Z,67.64
2017-08-17T13:16:52.712Z,67.64
2017-08-17T13:19:20.138Z,67.64
2017-08-17T13:21:47.599Z,67.62
2017-08-17T13:24:15.365Z,67.63
2017-08-17T13:26:42.881Z,67.65
2017-08-17T13:29:10.121Z,67.64
2017-08-17T13:31:37.420Z,67.64
2017-08-17T13:34:04.598Z,67.65
2017-08-17T13:36:32.152Z,67.66
2017-08-17T13:38:59.336Z,67.66
2017-08-17T13:41:26.642Z,67.68
2017-08-17T13:43:54.090Z,67.65
2017-08-17T13:46:21.284Z,67.66
2017-08-17T13:48:48.454Z,67.67
2017-08-17T13:51:15.639Z,67.67
2017-08-17T13:53:42.813Z,67.69
2017-08-17T13:56:10.151Z,67.68
2017-08-17T13:58:37.317Z,67.69
2017-08-17T14:01:04.757Z,67.69
2017-08-17T14:03:31.947Z,67.69
2017-08-17T14:05:59.117Z,67.71
2017-08-17T14:08:26.632Z,67.74
2017-08-17T14:10:53.806Z,67.73
2017-08-17T14:13:21.316Z,67.88
2017-08-17T14:15:48.485Z,67.37
2017-08-17T14:18:15.737Z,66.35
2017-08-17T14:20:43.249Z,65.34
2017-08-17T14:23:10.421Z,64.82
2017-08-17T14:25:37.591Z,64.38
2017-08-17T14:28:04.944Z,64.63
2017-08-17T14:30:32.127Z,65.26
2017-08-17T14:32:59.865Z,65.44
2017-08-17T14:35:27.316Z,65.72
2017-08-17T14:37:54.807Z,65.88
2017-08-17T14:40:21.973Z,66.06
2017-08-17T14:42:49.386Z,66.21
2017-08-17T14:45:16.836Z,66.36
2017-08-17T14:47:44.292Z,66.43
2017-08-17T14:50:11.753Z,66.52
2017-08-17T14:52:38.923Z,66.58
2017-08-17T14:55:06.357Z,66.65
2017-08-17T14:57:33.817Z,66.73
2017-08-17T15:00:00.999Z,66.78
2017-08-17T15:02:28.173Z,66.82
2017-08-17T15:04:55.436Z,66.87
2017-08-17T15:07:22.724Z,66.92
2017-08-17T15:09:49.893Z,66.98
2017-08-17T15:12:17.065Z,67.00
2017-08-17T15:14:44.248Z,67.04
2017-08-17T15:17:11.824Z,67.09
2017-08-17T15:19:39.007Z,67.11
2017-08-17T15:22:06.435Z,67.12
2017-08-17T15:24:33.694Z,67.17
2017-08-17T15:27:01.155Z,67.20
2017-08-17T15:29:28.535Z,67.23
2017-08-17T15:31:55.755Z,67.24
2017-08-17T15:34:23.399Z,67.25
2017-08-17T15:36:50.639Z,67.29
2017-08-17T15:39:18.751Z,67.31
2017-08-17T15:41:45.936Z,67.33
2017-08-17T15:44:13.418Z,67.34
2017-08-17T15:46:40.590Z,67.36
2017-08-17T15:49:07.773Z,67.38
2017-08-17T15:51:35.173Z,67.40
2017-08-17T15:54:02.347Z,67.42
2017-08-17T15:56:29.724Z,67.45
2017-08-17T15:58:56.910Z,67.47
2017-08-17T16:01:24.358Z,67.50
2017-08-17T16:03:51.544Z,67.51
2017-08-17T16:06:19.027Z,67.51
2017-08-17T16:08:46.569Z,67.55
2017-08-17T16:11:13.916Z,67.56
2017-08-17T16:13:41.080Z,67.60
2017-08-17T16:16:08.768Z,67.59
2017-08-17T16:18:35.955Z,67.61
2017-08-17T16:21:03.143Z,67.61
2017-08-17T16:23:30.332Z,67.60
2017-08-17T16:25:57.743Z,67.61
2017-08-17T16:28:25.124Z,67.62
2017-08-17T16:30:52.296Z,67.64
2017-08-17T16:33:19.796Z,67.66
2017-08-17T16:35:47.188Z,67.66
2017-08-17T16:38:14.650Z,67.66
2017-08-17T16:40:41.841Z,67.66
2017-08-17T16:43:09.017Z,67.66
2017-08-17T16:45:36.258Z,67.62
2017-08-17T16:48:03.868Z,67.62
2017-08-17T16:50:31.041Z,67.62
2017-08-17T16:52:58.477Z,67.63
2017-08-17T16:55:25.654Z,67.63
2017-08-17T16:57:53.148Z,67.64
2017-08-17T17:00:20.537Z,67.64
2017-08-17T17:02:47.987Z,67.64
2017-08-17T17:05:15.447Z,67.64
2017-08-17T17:07:42.904Z,67.65
2017-08-17T17:10:10.680Z,67.65
2017-08-17T17:12:37.845Z,67.65
2017-08-17T17:15:05.347Z,67.66
2017-08-17T17:17:32.738Z,67.66
2017-08-17T17:20:00.332Z,67.68
2017-08-17T17:22:27.961Z,67.68
2017-08-17T17:24:55.367Z,67.69
2017-08-17T17:27:22.547Z,67.69
2017-08-17T17:29:50.077Z,67.69
2017-08-17T17:32:17.477Z,67.71
2017-08-17T17:34:44.645Z,67.73
2017-08-17T17:37:12.154Z,67.74
2017-08-17T17:39:39.395Z,67.77
2017-08-17T17:42:06.571Z,67.76
2017-08-17T17:44:34.036Z,67.00
2017-08-17T17:47:01.296Z,65.82
2017-08-17T17:49:28.756Z,65.28
2017-08-17T17:51:56.208Z,64.69
2017-08-17T17:54:23.377Z,64.15
2017-08-17T17:56:50.815Z,64.99
2017-08-17T17:59:18.021Z,65.45
2017-08-17T18:01:45.200Z,65.54
2017-08-17T18:04:12.382Z,65.80
2017-08-17T18:06:39.737Z,65.99
2017-08-17T18:09:06.915Z,66.12
2017-08-17T18:11:34.340Z,66.26
2017-08-17T18:14:01.970Z,66.34
2017-08-17T18:16:29.138Z,66.46
2017-08-17T18:18:56.319Z,66.53
2017-08-17T18:21:23.500Z,66.63
2017-08-17T18:23:50.673Z,66.67
2017-08-17T18:26:18.957Z,66.74
2017-08-17T18:28:46.141Z,66.80
2017-08-17T18:31:13.311Z,66.85
2017-08-17T18:33:40.528Z,66.89
2017-08-17T18:36:08.176Z,66.93
2017-08-17T18:38:35.756Z,66.97
2017-08-17T18:41:03.264Z,66.99
2017-08-17T18:43:30.455Z,67.04
2017-08-17T18:45:57.625Z,67.08
2017-08-17T18:48:24.793Z,67.11
2017-08-17T18:50:52.117Z,67.14
2017-08-17T18:53:19.626Z,67.17
2017-08-17T18:55:47.142Z,67.19
2017-08-17T18:58:14.484Z,67.21
2017-08-17T19:00:42.054Z,67.25
2017-08-17T19:03:09.242Z,67.26
2017-08-17T19:05:36.861Z,67.28
2017-08-17T19:08:04.311Z,67.29
2017-08-17T19:10:32.115Z,67.31
2017-08-17T19:12:59.717Z,67.33
2017-08-17T19:15:27.002Z,67.35
2017-08-17T19:17:54.799Z,67.38
2017-08-17T19:20:21.974Z,67.40
2017-08-17T19:22:49.488Z,67.42
2017-08-17T19:25:16.689Z,67.44
2017-08-17T19:27:43.974Z,67.46
2017-08-17T19:30:11.149Z,67.49
2017-08-17T19:32:38.576Z,67.51
2017-08-17T19:35:06.038Z,67.55
2017-08-17T19:37:33.493Z,67.57
2017-08-17T19:40:01.136Z,67.55
2017-08-17T19:42:28.408Z,67.60
2017-08-17T19:44:55.819Z,67.62
2017-08-17T19:47:23.324Z,67.64
2017-08-17T19:49:50.777Z,67.65
2017-08-17T19:52:50.526Z,67.64
2017-08-17T19:55:17.949Z,67.67
2017-08-17T19:57:45.414Z,67.67
2017-08-17T20:00:12.869Z,67.69
2017-08-17T20:02:40.377Z,67.69
2017-08-17T20:05:07.780Z,67.67
2017-08-17T20:07:35.228Z,67.67
2017-08-17T20:10:02.456Z,67.70
2017-08-17T20:12:29.923Z,67.70
2017-08-17T20:14:57.309Z,67.68
2017-08-17T20:17:24.795Z,67.66
2017-08-17T20:19:51.963Z,67.65
2017-08-17T20:22:19.357Z,67.65
2017-08-17T20:24:46.548Z,67.66
2017-08-17T20:27:13.972Z,67.66
2017-08-17T20:29:41.139Z,67.68
2017-08-17T20:32:08.689Z,67.69
2017-08-17T20:34:36.441Z,67.68
2017-08-17T20:37:03.609Z,67.68
2017-08-17T20:39:30.953Z,67.68
2017-08-17T20:41:58.160Z,67.70
2017-08-17T20:44:25.871Z,67.72
2017-08-17T20:46:53.065Z,67.72
2017-08-17T20:49:20.241Z,67.73
2017-08-17T20:51:47.731Z,67.73
2017-08-17T20:54:15.080Z,67.74
2017-08-17T20:56:42.258Z,67.75
2017-08-17T20:59:09.691Z,67.75
2017-08-17T21:01:36.868Z,67.76
2017-08-17T21:04:04.301Z,67.98
2017-08-17T21:06:31.814Z,67.54
2017-08-17T21:08:58.995Z,67.96
2017-08-17T21:11:26.422Z,68.50
2017-08-17T21:13:53.817Z,68.66
2017-08-17T21:16:21.273Z,68.64
2017-08-17T21:18:48.442Z,68.63
2017-08-17T21:21:16.116Z,68.16
2017-08-17T21:23:43.286Z,67.02
2017-08-17T21:26:10.487Z,65.95
2017-08-17T21:28:37.945Z,65.41
2017-08-17T21:31:05.400Z,64.77
2017-08-17T21:33:32.574Z,64.18
2017-08-17T21:36:00.009Z,64.49
2017-08-17T21:38:27.364Z,65.23
2017-08-17T21:40:54.930Z,65.46
2017-08-17T21:43:22.098Z,65.70
2017-08-17T21:45:49.841Z,65.92
2017-08-17T21:48:17.486Z,66.08
2017-08-17T21:50:45.066Z,66.28
2017-08-17T21:53:12.443Z,66.45
2017-08-17T21:55:39.631Z,66.57
2017-08-17T21:58:07.561Z,66.64
2017-08-17T22:00:34.948Z,66.72
2017-08-17T22:03:02.466Z,66.80
2017-08-17T22:05:29.683Z,66.86
2017-08-17T22:07:56.958Z,66.92
2017-08-17T22:10:24.723Z,66.97
2017-08-17T22:12:51.889Z,67.04
2017-08-17T22:15:19.054Z,67.09
2017-08-17T22:17:46.215Z,67.13
2017-08-17T22:20:13.738Z,67.16
2017-08-17T22:22:40.905Z,67.18
2017-08-17T22:25:08.424Z,67.23
2017-08-17T22:27:35.742Z,67.25
2017-08-17T22:30:03.267Z,67.28
2017-08-17T22:32:30.600Z,67.31
2017-08-17T22:34:58.066Z,67.32
2017-08-17T22:37:25.257Z,67.35
2017-08-17T22:39:52.422Z,67.36
2017-08-17T22:42:19.948Z,67.38
2017-08-17T22:44:47.127Z,67.41
2017-08-17T22:47:14.422Z,67.43
2017-08-17T22:49:41.951Z,67.44
2017-08-17T22:52:09.341Z,67.48
2017-08-17T22:54:36.796Z,67.48
2017-08-17T22:57:04.329Z,67.49
2017-08-17T22:59:31.708Z,67.52
2017-08-17T23:01:58.877Z,67.54
2017-08-17T23:04:26.320Z,67.55
2017-08-17T23:06:54.121Z,67.58
2017-08-17T23:09:21.562Z,67.59
2017-08-17T23:11:48.742Z,67.62
2017-08-17T23:14:15.948Z,67.64
2017-08-17T23:16:43.297Z,67.65
2017-08-17T23:19:10.752Z,67.67
2017-08-17T23:21:37.938Z,67.68
2017-08-17T23:24:05.362Z,67.70
2017-08-17T23:26:32.538Z,67.73
2017-08-17T23:28:59.969Z,67.74
2017-08-17T23:31:27.147Z,67.76
2017-08-17T23:33:54.609Z,67.78
2017-08-17T23:36:22.035Z,67.80
2017-08-17T23:38:49.679Z,67.83
2017-08-17T23:41:16.860Z,67.85
2017-08-17T23:43:44.161Z,67.84
2017-08-17T23:46:11.334Z,67.86
2017-08-17T23:48:38.515Z,67.87
2017-08-17T23:51:05.918Z,67.89
2017-08-17T23:53:33.433Z,67.89
2017-08-17T23:56:00.623Z,67.86
2017-08-17T23:58:28.232Z,67.84
